• Join FlightAware (Why Join?)
  • Login
  • US Flag 
02:40AM EDT


 

Airport Tracker/Info


-or-


 

Live Flight TrackerFlight Track Log ✈ N9624M ✈ 09-May-2013 ✈ KCIC - KRDM

Flight Track Log - Related Links

Times and Time Zones

All times are in EDT time to prevent confusion due to time zone crossing. See the N9624M flight status page for this flight to view local times or setup timezone preferences in your user account.

Time Position Orientation Groundspeed Altitude Reporting Facility
EDT Latitude Longitude Course Direction KTS MPH feet Rate Location/Type
01:22PM 40.0599 -121.8176 North  Level FlightAware Approximate
01:23PM 40.1058 -121.8102 North  Level FlightAware Approximate
01:24PM 40.1517 -121.8025 North  Level FlightAware Approximate
01:25PM 40.1935 -121.7819 North  Level FlightAware Approximate
01:26PM 40.2395 -121.7754 North  Level FlightAware Approximate
01:27PM 40.2855 -121.7689 North  Level FlightAware Approximate
01:27PM 40.2550 -122.1272 345° North 158 182 7,300  Level Oakland Center
01:28PM 40.3316 -121.7624 North  Level FlightAware Approximate
01:29PM 40.3776 -121.7559 North  Level FlightAware Approximate
01:29PM 40.3143 -122.1136 10° North  Level Estimated
01:30PM 40.4236 -121.7494 North  Level FlightAware Approximate
01:31PM 40.4696 -121.7428 North  Level FlightAware Approximate
01:31PM 40.4356 -122.1558 10° North 160 184 9,300  Level Oakland Center
01:33PM 40.4778 -122.1472 North 154 177 9,700 240 Climbing Oakland Center
01:34PM 40.5242 -122.1469 360° North 154 177 9,900 240 Climbing Oakland Center
01:36PM 40.6334 -122.0400 10° North  Level Estimated
01:36PM 40.6132 -122.1212 12° North  Level FlightAware Approximate
01:37PM 40.6790 -122.0294 10° North  Level Estimated
01:37PM 40.6553 -122.1044 12° North 157 181 10,900  Level Oakland Center
01:38PM 40.7000 -122.0922 12° North 160 184 10,900  Level Oakland Center
01:39PM 40.7539 -122.0775 12° North 163 188 10,900  Level Oakland Center
01:40PM 40.7992 -122.0633 13° North 165 190 10,900  Level Oakland Center
01:41PM 40.8447 -122.0508 12° North 166 191 10,900  Level Oakland Center
01:42PM 40.8903 -122.0411 North 166 191 10,900  Level Oakland Center
01:43PM 40.9336 -122.0311 10° North 163 188 11,000  Climbing Oakland Center
01:44PM 40.9769 -122.0144 16° North 161 185 10,900 -60 Descending Oakland Center
01:45PM 41.0203 -121.9947 19° North 162 186 10,900  Level Oakland Center
01:46PM 41.0639 -121.9769 17° North 163 188 10,900  Level Oakland Center
01:47PM 41.1086 -121.9642 12° North 164 189 10,900 60 Level Oakland Center
01:48PM 41.1458 -121.9578 North 166 191 11,100 60 Climbing Seattle Center
01:49PM 41.2017 -121.9503 North 167 192 11,100  Level Seattle Center
01:50PM 41.2483 -121.9453 North 169 194 11,100  Level Seattle Center
01:51PM 41.2967 -121.9400 North 171 197 11,100  Level Seattle Center
01:52PM 41.3439 -121.9358 North 171 197 11,100  Level Seattle Center
01:53PM 41.3919 -121.9306 North 172 198 11,100  Level Seattle Center
01:54PM 41.4392 -121.9222 North 172 198 11,100  Level Seattle Center
01:55PM 41.4831 -121.9100 12° North 167 192 11,100  Level Seattle Center
01:56PM 41.5281 -121.8967 13° North 165 190 11,100  Level Seattle Center
01:57PM 41.5731 -121.8847 11° North 165 190 11,100  Level Seattle Center
01:58PM 41.6175 -121.8733 11° North 164 189 11,100  Level Seattle Center
01:59PM 41.6628 -121.8622 10° North 165 190 11,100  Level Seattle Center
02:00PM 41.7072 -121.8497 12° North 164 189 11,100  Level Seattle Center
02:01PM 41.7622 -121.8353 11° North 166 191 11,100  Level Seattle Center
02:02PM 41.8078 -121.8231 11° North 167 192 11,100  Level Seattle Center
02:03PM 41.8531 -121.8100 12° North 167 192 11,100  Level Seattle Center
02:04PM 41.8986 -121.7978 11° North 167 192 11,100  Level Seattle Center
02:05PM 41.9450 -121.7864 10° North 169 194 11,100  Level Seattle Center
02:06PM 41.9911 -121.7747 11° North 169 194 11,100  Level Seattle Center
02:07PM 42.0364 -121.7622 12° North 169 194 11,100  Level Seattle Center
02:08PM 42.0819 -121.7497 12° North 168 193 11,100  Level Seattle Center
02:09PM 42.1281 -121.7369 12° North 169 194 11,100  Level Seattle Center
02:10PM 42.1831 -121.7225 11° North 169 194 11,100  Level Seattle Center
02:11PM 42.2292 -121.7103 11° North 169 194 11,100  Level Seattle Center
02:12PM 42.2753 -121.6975 12° North 169 194 11,100  Level Seattle Center
02:13PM 42.3214 -121.6850 11° North 169 194 11,100  Level Seattle Center
02:14PM 42.3675 -121.6722 12° North 170 196 11,100  Level Seattle Center
02:15PM 42.4125 -121.6606 11° North 168 193 11,100  Level Seattle Center
02:16PM 42.4586 -121.6472 12° North 168 193 11,100  Level Seattle Center
02:17PM 42.5053 -121.6347 11° North 169 194 11,100  Level Seattle Center
02:18PM 42.5511 -121.6225 11° North 169 194 11,100  Level Seattle Center
02:19PM 42.5972 -121.6103 11° North 169 194 11,100  Level Seattle Center
02:20PM 42.6528 -121.5944 12° North 170 196 11,100  Level Seattle Center
02:21PM 42.6994 -121.5822 11° North 170 196 11,100  Level Seattle Center
02:22PM 42.7458 -121.5697 11° North 170 196 11,100  Level Seattle Center
02:23PM 42.7931 -121.5575 11° North 171 197 11,100  Level Seattle Center
02:24PM 42.8400 -121.5456 11° North 173 199 11,100  Level Seattle Center
02:25PM 42.8886 -121.5411 North 174 200 11,100  Level Seattle Center
02:26PM 42.9369 -121.5358 North 174 200 11,100  Level Seattle Center
02:27PM 42.9853 -121.5306 North 174 200 11,100  Level Seattle Center
02:28PM 43.0336 -121.5233 North 174 200 11,100  Level Seattle Center
02:29PM 43.0819 -121.5206 North 175 201 11,100  Level Seattle Center
02:30PM 43.1289 -121.5153 North 171 197 11,100  Level Seattle Center
02:31PM 43.1858 -121.5108 North 171 197 11,100  Level Seattle Center
02:32PM 43.2339 -121.5053 North 172 198 11,100  Level Seattle Center
02:33PM 43.2808 -121.4961 North 171 197 11,200  Climbing Seattle Center
02:35PM 43.3283 -121.4914 North 171 197 11,100 -60 Descending Seattle Center
02:36PM 43.3756 -121.4942 358° North 169 194 11,100  Level Seattle Center
02:37PM 43.4239 -121.4964 358° North 173 199 11,100  Level Seattle Center
02:38PM 43.4711 -121.4922 North 172 198 11,100  Level Seattle Center
02:39PM 43.5189 -121.4850 North 172 198 11,100 -60 Level Seattle Center
02:40PM 43.5686 -121.4733 10° North 171 197 11,000 -60 Descending Seattle Center
02:41PM 43.6139 -121.4617 11° North 166 191 11,000 -240 Level Seattle Center
02:42PM 43.6603 -121.4489 11° North 171 197 10,600 -480 Descending Seattle Center
02:43PM 43.7072 -121.4264 19° North 177 204 10,100 -420 Descending Seattle Center
02:44PM 43.7528 -121.3983 24° Northeast 177 204 9,800 -480 Descending Seattle Center
02:45PM 43.8086 -121.3739 18° North 176 203 9,200 -540 Descending Seattle Center
02:46PM 43.8533 -121.3506 21° North 173 199 8,800 -480 Descending Seattle Center
02:47PM 43.8972 -121.3294 19° North 170 196 8,300 -600 Descending Seattle Center
02:48PM 43.9297 -121.2875 43° Northeast 164 189 7,700 -600 Descending Seattle Center
02:49PM 43.9617 -121.2458 43° Northeast 161 185 7,100 -540 Descending Seattle Center
02:50PM 43.9889 -121.2033 48° Northeast 154 177 6,600 -420 Descending Seattle Center
02:51PM 44.0189 -121.1675 41° Northeast 148 170 6,300 -360 Descending Seattle Center
02:52PM 44.0519 -121.1483 23° Northeast 137 158 5,900 -600 Descending Seattle Center
02:53PM 44.0833 -121.1344 18° North 127 146 5,200 -600 Descending Seattle Center
02:54PM 44.1139 -121.1247 13° North 119 137 4,800 -420 Descending Seattle Center